Time;durP1;ratioP1;P1;durP2;ratioP2;P2;SDS_P1;SDS_P2;PMS_P1;PMS_P2;Temp;Humidity;BMP_temperature;BMP_pressure;BME280_temperature;BME280_humidity;BME280_pressure;Samples;Min_cycle;Max_cycle;Signal;HPM_P1;HPM_P2
2024/02/27 00:03:09;;;;;;;49.60;27.50;;;;;;;8.10;100.00;99917.90;214696;1285;139327;-87
2024/02/27 00:08:09;;;;;;;48.20;27.80;;;;;;;8.04;100.00;99911.41;214281;1286;140295;-87
2024/02/27 00:13:10;;;;;;;47.20;26.60;;;;;;;8.01;100.00;99911.30;215145;1285;97942;-87
2024/02/27 00:18:13;;;;;;;50.80;26.70;;;;;;;8.00;100.00;99917.68;215802;1285;140002;-86
2024/02/27 00:23:14;;;;;;;45.80;26.60;;;;;;;7.97;100.00;99917.80;215648;1284;139240;-87
2024/02/27 00:28:14;;;;;;;46.90;26.90;;;;;;;7.93;100.00;99918.06;215175;1288;141794;-86
2024/02/27 00:33:15;;;;;;;47.00;26.20;;;;;;;7.86;100.00;99918.36;215910;1285;139983;-87
2024/02/27 00:38:15;;;;;;;45.90;26.70;;;;;;;7.80;100.00;99919.92;215297;1288;140021;-87
2024/02/27 00:43:16;;;;;;;45.30;27.80;;;;;;;7.80;100.00;99927.13;215501;1287;97885;-87
2024/02/27 00:48:16;;;;;;;50.80;27.10;;;;;;;7.78;100.00;99930.55;214732;1284;140126;-86
2024/02/27 00:53:19;;;;;;;47.10;26.30;;;;;;;7.77;100.00;99928.81;214934;1284;139431;-87
2024/02/27 00:58:22;;;;;;;46.30;26.50;;;;;;;7.76;100.00;99929.25;214359;1284;139828;-87
2024/02/27 01:03:22;;;;;;;51.80;27.20;;;;;;;7.77;100.00;99940.79;215025;1285;138955;-87
2024/02/27 01:08:23;;;;;;;48.80;28.40;;;;;;;7.76;100.00;99939.99;214622;1284;140673;-87
2024/02/27 01:13:23;;;;;;;49.40;27.90;;;;;;;7.78;100.00;99933.50;215071;1285;139644;-87
2024/02/27 01:18:24;;;;;;;47.90;26.90;;;;;;;7.78;100.00;99943.39;214549;1285;141340;-86
2024/02/27 01:23:24;;;;;;;51.60;28.40;;;;;;;7.79;100.00;99945.66;214828;1285;139493;-87
2024/02/27 01:28:25;;;;;;;54.40;29.50;;;;;;;7.81;100.00;99944.20;214375;1288;140412;-87
2024/02/27 01:33:25;;;;;;;56.20;30.40;;;;;;;7.83;100.00;99953.38;214754;1286;140117;-86
2024/02/27 01:38:26;;;;;;;55.90;30.90;;;;;;;7.84;100.00;99954.42;214136;1285;140778;-85
2024/02/27 01:43:26;;;;;;;48.00;27.70;;;;;;;7.84;100.00;99961.15;214757;1284;139311;-87
2024/02/27 01:48:27;;;;;;;56.40;29.90;;;;;;;7.85;100.00;99964.77;214233;1288;141911;-86
2024/02/27 01:53:29;;;;;;;50.20;28.10;;;;;;;7.86;100.00;99972.77;214870;1284;139705;-86
2024/02/27 01:58:30;;;;;;;49.90;28.50;;;;;;;7.87;100.00;99978.98;214307;1285;140740;-87
2024/02/27 02:03:35;;;;;;;50.30;29.40;;;;;;;7.89;100.00;99968.98;214756;1288;139540;-87
2024/02/27 02:08:37;;;;;;;51.10;28.80;;;;;;;7.88;100.00;99959.48;214560;1288;142294;-87
2024/02/27 02:13:38;;;;;;;55.40;30.00;;;;;;;7.91;100.00;99960.77;214899;1285;139439;-87
2024/02/27 02:18:38;;;;;;;54.60;31.00;;;;;;;7.89;100.00;99956.52;214395;1285;140021;-87
2024/02/27 02:23:40;;;;;;;56.90;31.90;;;;;;;7.85;100.00;99960.61;214773;1285;139762;-87
2024/02/27 02:28:41;;;;;;;55.80;31.80;;;;;;;7.83;100.00;99961.52;214416;1288;140797;-86
2024/02/27 02:33:42;;;;;;;58.40;33.40;;;;;;;7.80;100.00;99963.36;214840;1288;138913;-86
2024/02/27 02:38:42;;;;;;;62.20;33.70;;;;;;;7.79;100.00;99966.64;214251;1285;140731;-87
2024/02/27 02:43:43;;;;;;;56.90;32.90;;;;;;;7.77;100.00;99964.89;214654;1284;139041;-86
2024/02/27 02:48:43;;;;;;;65.50;33.50;;;;;;;7.75;100.00;99980.51;214374;1285;140519;-85
2024/02/27 02:53:43;;;;;;;59.80;33.40;;;;;;;7.72;100.00;99990.40;214670;1285;138690;-86
2024/02/27 02:58:44;;;;;;;59.20;34.50;;;;;;;7.67;100.00;99998.31;214351;1285;140415;-87
2024/02/27 03:03:44;;;;;;;62.20;34.30;;;;;;;7.65;100.00;100012.59;214642;1285;138957;-87
2024/02/27 03:08:47;;;;;;;62.00;34.80;;;;;;;7.65;100.00;100026.45;214086;1285;139900;-86
2024/02/27 03:13:47;;;;;;;62.80;34.80;;;;;;;7.68;100.00;100034.86;214731;1284;139563;-86
2024/02/27 03:18:47;;;;;;;58.70;34.20;;;;;;;7.69;100.00;100037.06;214218;1285;140502;-86
2024/02/27 03:23:48;;;;;;;60.60;35.80;;;;;;;7.67;100.00;100030.38;214650;1285;138867;-87
2024/02/27 03:28:48;;;;;;;65.20;36.80;;;;;;;7.67;100.00;100031.88;214126;1285;140501;-87
2024/02/27 03:33:49;;;;;;;71.10;38.60;;;;;;;7.67;100.00;100036.27;214554;1285;139033;-87
2024/02/27 03:38:49;;;;;;;72.90;37.80;;;;;;;7.66;100.00;100043.84;214012;1285;140930;-87
2024/02/27 03:43:50;;;;;;;65.70;37.10;;;;;;;7.66;100.00;100053.99;214728;1285;139759;-88
2024/02/27 03:48:50;;;;;;;70.50;36.80;;;;;;;7.66;100.00;100046.80;214567;1284;140231;-87
2024/02/27 03:53:51;;;;;;;66.00;37.20;;;;;;;7.65;100.00;100062.13;214714;1284;140617;-87
2024/02/27 03:58:51;;;;;;;69.80;37.80;;;;;;;7.60;100.00;100061.65;214179;1284;140533;-87
2024/02/27 04:03:52;;;;;;;73.20;35.80;;;;;;;7.56;100.00;100066.73;214894;1287;140482;-87
2024/02/27 04:08:52;;;;;;;69.80;38.70;;;;;;;7.51;100.00;100074.33;214201;1284;140186;-87
2024/02/27 04:13:53;;;;;;;70.30;38.10;;;;;;;7.48;100.00;100068.63;214780;1285;139580;-87
2024/02/27 04:18:53;;;;;;;70.90;37.80;;;;;;;7.44;100.00;100073.89;216830;1285;140714;-87
2024/02/27 04:23:54;;;;;;;67.00;37.50;;;;;;;7.42;100.00;100074.32;215771;1285;139487;-87
2024/02/27 04:28:54;;;;;;;74.50;39.60;;;;;;;7.41;100.00;100073.36;215235;1284;140626;-87
2024/02/27 04:33:55;;;;;;;67.30;36.30;;;;;;;7.39;100.00;100079.02;215951;1285;139577;-88
2024/02/27 04:38:56;;;;;;;64.50;35.80;;;;;;;7.36;100.00;100075.69;215274;1284;140372;-88
2024/02/27 04:43:57;;;;;;;69.30;37.50;;;;;;;7.30;100.00;100072.92;217895;1285;139281;-88
2024/02/27 04:48:57;;;;;;;74.20;38.00;;;;;;;7.25;100.00;100077.38;214553;1284;140251;-88
2024/02/27 04:53:58;;;;;;;66.10;36.50;;;;;;;7.21;100.00;100078.45;215036;1285;140005;-87
2024/02/27 04:58:58;;;;;;;77.20;40.90;;;;;;;7.18;100.00;100082.79;214440;1288;140900;-87
2024/02/27 05:03:59;;;;;;;79.60;41.90;;;;;;;7.14;100.00;100079.13;214878;1284;140101;-87
2024/02/27 05:08:59;;;;;;;76.20;40.90;;;;;;;7.12;100.00;100075.56;214472;1284;140615;-87
2024/02/27 05:14:00;;;;;;;73.80;40.50;;;;;;;7.09;100.00;100077.20;214987;1285;140488;-87
2024/02/27 05:19:00;;;;;;;79.10;40.40;;;;;;;7.09;100.00;100075.73;214832;1285;141612;-87
2024/02/27 05:24:01;;;;;;;80.40;40.70;;;;;;;7.10;100.00;100081.69;214978;1284;139356;-86
2024/02/27 05:29:01;;;;;;;78.70;39.00;;;;;;;7.12;100.00;100084.85;215058;1284;140474;-86
2024/02/27 05:34:02;;;;;;;74.00;39.60;;;;;;;7.12;100.00;100092.14;215223;1284;139735;-87
2024/02/27 05:39:03;;;;;;;79.00;40.60;;;;;;;7.14;100.00;100095.45;214684;1285;140791;-87
2024/02/27 05:44:03;;;;;;;77.40;41.00;;;;;;;7.15;100.00;100112.59;215221;1285;139613;-87
2024/02/27 05:49:04;;;;;;;73.90;39.20;;;;;;;7.14;100.00;100110.92;214964;1285;140928;-87
2024/02/27 05:54:05;;;;;;;81.80;41.30;;;;;;;7.14;100.00;100117.73;214854;1286;139126;-87
2024/02/27 05:59:05;;;;;;;76.00;40.60;;;;;;;7.12;100.00;100118.79;214589;1285;140761;-86
2024/02/27 06:04:05;;;;;;;74.90;40.00;;;;;;;7.15;100.00;100121.43;215098;1285;140318;-87
2024/02/27 06:09:07;;;;;;;76.60;41.00;;;;;;;7.18;100.00;100128.77;214563;1284;140484;-86
2024/02/27 06:14:07;;;;;;;76.30;40.50;;;;;;;7.21;100.00;100130.77;214980;1285;139345;-86
2024/02/27 06:19:09;;;;;;;84.90;42.90;;;;;;;7.22;100.00;100134.64;214630;1288;141148;-88
2024/02/27 06:24:10;;;;;;;86.00;41.00;;;;;;;7.26;100.00;100148.09;215844;1284;138841;-87
2024/02/27 06:29:10;;;;;;;85.70;41.90;;;;;;;7.29;100.00;100158.07;215197;1284;141829;-87
2024/02/27 06:34:10;;;;;;;89.50;44.30;;;;;;;7.33;100.00;100156.60;215511;1285;139275;-87
2024/02/27 06:39:11;;;;;;;81.30;39.90;;;;;;;7.36;100.00;100166.83;215437;1285;141182;-87
2024/02/27 06:44:12;;;;;;;83.10;40.90;;;;;;;7.41;100.00;100169.10;215766;1285;141248;-88
2024/02/27 06:49:12;;;;;;;83.40;41.90;;;;;;;7.45;100.00;100172.23;214593;1284;140759;-87
2024/02/27 06:54:13;;;;;;;83.80;40.30;;;;;;;7.49;100.00;100172.30;215075;1285;140246;-89
2024/02/27 06:59:13;;;;;;;80.70;37.40;;;;;;;7.52;100.00;100175.17;216731;1286;140542;-88
2024/02/27 07:04:13;;;;;;;97.30;42.90;;;;;;;7.57;100.00;100175.67;218841;1285;139515;-88
2024/02/27 07:09:14;;;;;;;75.10;38.30;;;;;;;7.60;100.00;100180.48;218345;1285;140129;-88
2024/02/27 07:14:14;;;;;;;79.20;36.20;;;;;;;7.64;100.00;100175.79;218921;1285;139621;-88
2024/02/27 07:19:19;;;;;;;85.10;39.60;;;;;;;7.67;100.00;100184.62;216157;1284;140410;-88
2024/02/27 07:24:20;;;;;;;89.80;38.50;;;;;;;7.74;100.00;100192.17;215302;1285;99266;-88
2024/02/27 07:29:21;;;;;;;97.90;41.00;;;;;;;7.76;100.00;100187.70;214320;1286;140583;-88
2024/02/27 07:34:21;;;;;;;92.20;41.10;;;;;;;7.80;100.00;100190.96;214775;1286;139232;-88
2024/02/27 07:39:22;;;;;;;85.80;39.80;;;;;;;7.85;100.00;100193.79;214202;1287;140745;-88
2024/02/27 07:44:22;;;;;;;100.60;40.90;;;;;;;7.88;100.00;100194.55;214961;1284;139174;-88
2024/02/27 07:49:25;;;;;;;81.60;38.10;;;;;;;7.88;100.00;100193.84;214364;1285;140768;-88
2024/02/27 07:54:26;;;;;;;92.40;40.00;;;;;;;7.92;100.00;100196.98;215461;1285;97993;-87
2024/02/27 07:59:27;;;;;;;84.40;38.70;;;;;;;7.94;100.00;100200.45;214471;1286;140046;-89
2024/02/27 08:04:27;;;;;;;80.50;36.70;;;;;;;8.00;100.00;100208.64;215125;1287;139336;-89
2024/02/27 08:09:33;;;;;;;80.10;37.90;;;;;;;8.05;100.00;100214.36;214408;1286;140784;-90
2024/02/27 08:14:33;;;;;;;78.30;37.50;;;;;;;8.11;100.00;100214.77;214853;1285;139484;-90
2024/02/27 08:19:34;;;;;;;80.20;37.60;;;;;;;8.14;100.00;100224.08;214679;1285;139754;-91
2024/02/27 08:24:35;;;;;;;85.20;38.60;;;;;;;8.18;100.00;100227.20;215283;1284;97887;-91
2024/02/27 08:29:35;;;;;;;78.90;35.60;;;;;;;8.25;100.00;100235.96;214469;1284;266439;-90
2024/02/27 08:34:35;;;;;;;75.00;36.40;;;;;;;8.28;100.00;100247.23;215068;1286;139707;-90
2024/02/27 08:39:37;;;;;;;69.50;34.60;;;;;;;8.26;100.00;100253.67;214965;1288;140235;-90
2024/02/27 08:44:37;;;;;;;75.40;35.20;;;;;;;8.18;100.00;100263.52;215255;1284;139646;-90
2024/02/27 08:49:40;;;;;;;72.80;35.10;;;;;;;8.20;100.00;100265.31;214197;1287;140039;-89
2024/02/27 08:54:40;;;;;;;74.80;34.60;;;;;;;8.25;100.00;100277.73;215235;1285;97992;-90
2024/02/27 08:59:46;;;;;;;75.80;33.80;;;;;;;8.29;100.00;100280.52;214814;1284;141015;-90
2024/02/27 09:04:46;;;;;;;72.60;34.50;;;;;;;8.34;100.00;100291.51;216125;1285;139156;-89
2024/02/27 09:09:47;;;;;;;76.90;34.60;;;;;;;8.34;100.00;100302.15;215776;1284;141051;-88
2024/02/27 09:14:47;;;;;;;76.70;34.00;;;;;;;8.33;100.00;100306.85;216465;1285;139621;-89
2024/02/27 09:19:48;;;;;;;76.70;34.60;;;;;;;8.35;100.00;100302.41;215802;1286;141837;-89
2024/02/27 09:24:48;;;;;;;74.00;32.90;;;;;;;8.35;100.00;100300.77;215034;1287;99394;-90
2024/02/27 09:29:49;;;;;;;88.20;35.30;;;;;;;8.37;100.00;100300.01;214473;1287;140535;-90
2024/02/27 09:34:50;;;;;;;84.80;35.80;;;;;;;8.41;100.00;100295.54;215157;1285;139241;-88
2024/02/27 09:39:51;;;;;;;85.20;36.50;;;;;;;8.44;100.00;100293.95;214580;1285;140599;-89
2024/02/27 09:44:57;;;;;;;81.30;33.40;;;;;;;8.45;100.00;100304.00;215507;1285;139558;-89
2024/02/27 09:50:00;;;;;;;78.60;34.60;;;;;;;8.44;100.00;100305.70;214440;1286;139967;-88
2024/02/27 09:55:01;;;;;;;72.20;31.70;;;;;;;8.51;100.00;100309.98;215024;1285;108666;-89
2024/02/27 10:00:02;;;;;;;94.30;40.90;;;;;;;8.55;100.00;100316.87;214436;1290;139682;-89
2024/02/27 10:05:04;;;;;;;86.30;39.50;;;;;;;8.58;100.00;100323.51;215524;1284;139383;-88
2024/02/27 10:10:07;;;;;;;88.30;38.10;;;;;;;8.62;100.00;100324.20;214480;1284;140312;-89
2024/02/27 10:15:08;;;;;;;86.20;41.30;;;;;;;8.63;100.00;100321.48;215083;1288;139599;-89
2024/02/27 10:20:13;;;;;;;84.10;38.20;;;;;;;8.67;100.00;100328.98;214827;1285;140396;-89
2024/02/27 10:25:16;;;;;;;89.30;38.00;;;;;;;8.72;100.00;100330.25;215431;1285;106875;-89
2024/02/27 10:30:17;;;;;;;87.20;38.00;;;;;;;8.75;100.00;100331.64;214795;1286;140060;-89
2024/02/27 10:35:19;;;;;;;89.10;38.40;;;;;;;8.85;100.00;100331.56;214968;1292;139825;-88
2024/02/27 10:40:20;;;;;;;95.30;39.10;;;;;;;8.88;100.00;100333.89;214416;1286;140048;-89
2024/02/27 10:45:20;;;;;;;90.20;38.30;;;;;;;8.90;100.00;100334.32;215968;1284;139662;-89
2024/02/27 10:50:21;;;;;;;89.90;38.40;;;;;;;8.93;100.00;100334.60;215826;1285;141474;-89
2024/02/27 10:55:23;;;;;;;83.00;36.00;;;;;;;9.03;100.00;100335.06;216721;1284;139492;-88
2024/02/27 11:00:25;;;;;;;98.10;42.00;;;;;;;9.12;100.00;100340.16;215840;1284;140157;-89
2024/02/27 11:05:26;;;;;;;95.30;40.30;;;;;;;9.15;100.00;100341.38;215428;1285;139685;-89
2024/02/27 11:10:29;;;;;;;83.60;38.30;;;;;;;9.11;100.00;100346.11;214658;1285;140110;-88
2024/02/27 11:15:30;;;;;;;85.20;37.20;;;;;;;9.17;100.00;100353.89;215023;1285;140429;-88
2024/02/27 11:20:32;;;;;;;89.00;39.70;;;;;;;9.23;100.00;100352.95;214302;1288;140410;-89
2024/02/27 11:25:33;;;;;;;86.80;38.00;;;;;;;9.32;100.00;100351.99;214948;1284;139501;-88
2024/02/27 11:30:36;;;;;;;89.70;40.80;;;;;;;9.44;100.00;100356.96;214051;1287;140591;-89
2024/02/27 11:35:37;;;;;;;85.90;39.90;;;;;;;9.52;100.00;100355.50;215051;1287;139166;-89
2024/02/27 11:40:46;;;;;;;83.10;39.30;;;;;;;9.52;100.00;100359.10;214338;1285;141393;-89
2024/02/27 11:45:46;;;;;;;78.70;37.20;;;;;;;9.53;100.00;100362.50;214903;1285;139336;-88
2024/02/27 11:50:47;;;;;;;84.20;36.70;;;;;;;9.60;100.00;100364.16;214138;1290;140129;-89
2024/02/27 11:55:53;;;;;;;82.40;35.70;;;;;;;9.65;100.00;100368.71;214429;1287;139192;-89
2024/02/27 12:00:54;;;;;;;76.50;35.30;;;;;;;9.68;100.00;100371.11;214324;1285;140267;-89
2024/02/27 12:05:59;;;;;;;72.00;33.50;;;;;;;9.73;100.00;100373.45;214792;1285;138833;-89
2024/02/27 12:11:00;;;;;;;75.50;35.40;;;;;;;9.76;100.00;100364.94;214380;1285;140516;-89
2024/02/27 12:16:01;;;;;;;74.00;35.40;;;;;;;9.74;100.00;100370.09;214798;1288;139053;-88
2024/02/27 12:21:02;;;;;;;78.00;35.50;;;;;;;9.68;100.00;100374.64;214453;1285;140529;-89
2024/02/27 12:26:03;;;;;;;66.20;31.50;;;;;;;9.61;100.00;100371.09;214721;1286;139366;-88
2024/02/27 12:31:05;;;;;;;72.90;33.40;;;;;;;9.57;100.00;100371.03;214498;1286;140314;-88
2024/02/27 12:36:06;;;;;;;72.80;33.90;;;;;;;9.51;100.00;100373.92;214912;1288;139016;-87
2024/02/27 12:41:07;;;;;;;72.90;33.60;;;;;;;9.41;100.00;100373.00;214421;1288;139703;-88
2024/02/27 12:46:08;;;;;;;80.50;36.60;;;;;;;9.40;100.00;100373.69;215018;1285;138990;-88
2024/02/27 12:51:10;;;;;;;79.60;36.40;;;;;;;9.37;100.00;100367.61;214184;1285;140335;-89
2024/02/27 12:56:12;;;;;;;74.50;33.00;;;;;;;9.30;100.00;100365.60;215223;1285;139002;-88
2024/02/27 13:01:13;;;;;;;71.90;32.30;;;;;;;9.28;100.00;100372.02;214276;1287;140072;-88
2024/02/27 13:06:13;;;;;;;78.50;32.50;;;;;;;9.35;100.00;100375.40;214548;1287;138974;-85
2024/02/27 13:11:14;;;;;;;67.40;31.90;;;;;;;9.42;100.00;100381.02;214975;1286;140340;-89
2024/02/27 13:16:16;;;;;;;73.90;35.20;;;;;;;9.45;100.00;100383.88;214801;1285;139038;-89
2024/02/27 13:21:20;;;;;;;74.00;34.50;;;;;;;9.40;100.00;100389.38;215067;1288;139199;-89
2024/02/27 13:26:21;;;;;;;75.60;36.90;;;;;;;9.25;100.00;100382.71;214375;1285;140218;-89
2024/02/27 13:31:21;;;;;;;82.70;35.10;;;;;;;9.18;100.00;100384.57;214704;1287;140320;-89
2024/02/27 13:36:22;;;;;;;76.20;33.70;;;;;;;9.16;100.00;100386.82;214261;1287;140763;-88
2024/02/27 13:41:23;;;;;;;76.00;36.10;;;;;;;9.17;100.00;100387.69;214761;1287;140175;-88
2024/02/27 13:46:24;;;;;;;74.20;34.90;;;;;;;9.20;100.00;100389.53;214396;1285;140447;-89
2024/02/27 13:51:24;;;;;;;66.70;31.80;;;;;;;9.18;100.00;100393.83;215051;1287;139316;-89
2024/02/27 13:56:25;;;;;;;69.70;30.90;;;;;;;9.20;100.00;100394.73;214295;1286;140513;-89
2024/02/27 14:01:26;;;;;;;69.30;31.10;;;;;;;9.20;100.00;100402.73;214903;1288;139103;-88
2024/02/27 14:06:27;;;;;;;61.10;30.10;;;;;;;9.18;100.00;100402.76;214641;1285;140336;-90
2024/02/27 14:11:28;;;;;;;61.70;29.00;;;;;;;9.20;100.00;100399.73;215062;1285;138920;-89
2024/02/27 14:16:28;;;;;;;66.40;32.10;;;;;;;9.16;100.00;100402.10;214581;1288;140950;-88
2024/02/27 14:21:28;;;;;;;67.70;31.10;;;;;;;9.10;100.00;100408.83;215078;1286;139678;-87
2024/02/27 14:26:29;;;;;;;64.00;31.20;;;;;;;9.12;100.00;100411.14;214557;1285;141446;-88
2024/02/27 14:31:32;;;;;;;79.70;36.30;;;;;;;9.11;100.00;100409.32;214644;1287;139086;-88
2024/02/27 14:36:34;;;;;;;74.70;35.20;;;;;;;9.13;100.00;100416.57;214546;1288;140853;-88
2024/02/27 14:41:34;;;;;;;78.70;35.50;;;;;;;9.14;100.00;100416.58;214902;1288;138891;-88
2024/02/27 14:46:37;;;;;;;69.40;31.50;;;;;;;9.05;100.00;100411.18;214685;1288;141846;-88
2024/02/27 14:51:39;;;;;;;74.70;33.10;;;;;;;8.97;100.00;100408.39;215017;1288;139495;-89
2024/02/27 14:56:40;;;;;;;68.10;29.50;;;;;;;8.89;100.00;100414.98;214389;1285;140814;-88
2024/02/27 15:01:40;;;;;;;75.20;33.60;;;;;;;8.90;100.00;100419.08;214947;1285;140197;-89
2024/02/27 15:06:41;;;;;;;77.80;34.70;;;;;;;8.95;100.00;100423.77;214516;1288;140188;-89
2024/02/27 15:11:42;;;;;;;75.70;34.70;;;;;;;8.96;100.00;100422.08;214740;1288;139083;-88
2024/02/27 15:16:42;;;;;;;72.00;33.20;;;;;;;8.93;100.00;100424.08;214195;1285;140935;-88
2024/02/27 15:21:43;;;;;;;67.20;31.70;;;;;;;8.90;100.00;100425.73;214666;1287;139677;-87
2024/02/27 15:26:43;;;;;;;61.80;29.70;;;;;;;8.81;100.00;100423.77;214057;1287;140506;-88
2024/02/27 15:31:44;;;;;;;94.80;42.50;;;;;;;8.80;100.00;100422.89;214520;1285;140569;-89
2024/02/27 15:36:44;;;;;;;164.50;71.60;;;;;;;8.81;100.00;100426.83;214210;1288;140511;-89
2024/02/27 15:41:45;;;;;;;82.80;45.00;;;;;;;8.82;100.00;100424.80;214644;1287;139627;-88
2024/02/27 15:46:46;;;;;;;85.10;43.20;;;;;;;8.82;100.00;100428.42;214094;1286;140519;-87
2024/02/27 15:51:46;;;;;;;84.70;39.10;;;;;;;8.80;100.00;100437.17;214711;1290;140584;-87
2024/02/27 15:56:47;;;;;;;70.60;33.40;;;;;;;8.80;100.00;100433.71;214209;1286;140495;-88
2024/02/27 16:01:47;;;;;;;65.30;31.40;;;;;;;8.76;100.00;100434.74;214720;1288;139007;-88
2024/02/27 16:06:57;;;;;;;70.40;33.00;;;;;;;8.75;100.00;100444.36;214854;1285;140782;-88
2024/02/27 16:11:58;;;;;;;73.00;31.00;;;;;;;8.76;100.00;100449.86;215109;1288;139096;-88
2024/02/27 16:16:58;;;;;;;67.30;32.90;;;;;;;8.77;100.00;100449.27;215151;1288;140800;-88
2024/02/27 16:22:09;;;;;;;61.50;30.20;;;;;;;8.77;100.00;100445.11;215051;1288;139084;-88
2024/02/27 16:27:10;;;;;;;66.00;32.40;;;;;;;8.72;100.00;100445.65;214257;1286;140363;-89
2024/02/27 16:32:10;;;;;;;72.40;35.00;;;;;;;8.72;100.00;100451.98;214586;1290;139071;-89
2024/02/27 16:37:11;;;;;;;67.30;32.90;;;;;;;8.75;100.00;100459.73;214402;1290;140700;-89
2024/02/27 16:42:16;;;;;;;70.10;30.90;;;;;;;8.75;100.00;100467.27;214694;1286;138750;-89
2024/02/27 16:47:18;;;;;;;75.60;34.50;;;;;;;8.75;100.00;100472.74;214090;1290;140765;-88
2024/02/27 16:52:18;;;;;;;73.60;34.20;;;;;;;8.73;100.00;100477.95;214702;1285;139433;-89
2024/02/27 16:57:19;;;;;;;70.80;32.80;;;;;;;8.70;100.00;100484.64;214210;1288;141353;-88
2024/02/27 17:02:19;;;;;;;73.80;34.50;;;;;;;8.70;100.00;100494.67;214867;1288;139145;-89
2024/02/27 17:07:20;;;;;;;72.00;32.10;;;;;;;8.63;100.00;100501.84;214444;1288;140975;-86
2024/02/27 17:12:21;;;;;;;75.20;33.60;;;;;;;8.58;100.00;100504.63;214933;1289;97986;-89
2024/02/27 17:17:23;;;;;;;86.90;39.70;;;;;;;8.56;100.00;100504.83;214355;1284;140216;-88
2024/02/27 17:22:23;;;;;;;75.50;31.80;;;;;;;8.52;100.00;100501.13;214863;1286;139232;-89
2024/02/27 17:27:24;;;;;;;67.40;32.50;;;;;;;8.52;100.00;100500.59;214434;1288;141754;-88
2024/02/27 17:32:24;;;;;;;71.50;34.50;;;;;;;8.52;100.00;100492.99;214944;1286;140464;-88
2024/02/27 17:37:24;;;;;;;75.60;36.60;;;;;;;8.56;100.00;100494.39;214373;1285;140679;-88
2024/02/27 17:42:25;;;;;;;75.40;36.90;;;;;;;8.58;100.00;100495.31;215088;1285;97942;-89
2024/02/27 17:47:25;;;;;;;67.60;33.50;;;;;;;8.59;100.00;100503.71;214721;1285;140382;-88
2024/02/27 17:52:28;;;;;;;69.60;34.30;;;;;;;8.61;100.00;100509.94;215053;1285;140017;-88
2024/02/27 17:57:30;;;;;;;70.10;34.50;;;;;;;8.59;100.00;100503.40;214463;1285;140860;-88
2024/02/27 18:02:30;;;;;;;67.70;33.10;;;;;;;8.55;100.00;100500.33;215047;1285;139143;-88
2024/02/27 18:07:31;;;;;;;80.20;38.00;;;;;;;8.54;100.00;100496.86;214498;1287;140446;-89
2024/02/27 18:12:32;;;;;;;143.80;55.80;;;;;;;8.53;100.00;100499.67;215192;1285;101665;-88
2024/02/27 18:17:32;;;;;;;143.80;53.50;;;;;;;8.52;100.00;100501.91;214597;1284;140581;-89
2024/02/27 18:22:32;;;;;;;129.10;51.70;;;;;;;8.53;100.00;100505.16;215302;1285;139801;-88
2024/02/27 18:27:33;;;;;;;107.60;45.70;;;;;;;8.55;100.00;100508.17;214643;1285;140654;-89
2024/02/27 18:32:33;;;;;;;99.40;41.80;;;;;;;8.55;100.00;100514.34;214850;1286;139452;-88
2024/02/27 18:37:34;;;;;;;108.40;46.60;;;;;;;8.54;100.00;100522.34;214267;1290;140472;-88
2024/02/27 18:42:34;;;;;;;129.00;51.00;;;;;;;8.53;100.00;100520.73;215056;1286;98473;-89
2024/02/27 18:47:35;;;;;;;120.90;51.40;;;;;;;8.47;100.00;100525.41;214490;1287;140448;-89
2024/02/27 18:52:35;;;;;;;110.20;48.30;;;;;;;8.40;100.00;100518.37;215073;1288;139357;-88
2024/02/27 18:57:37;;;;;;;101.70;43.90;;;;;;;8.36;100.00;100510.28;214634;1285;140758;-89
2024/02/27 19:02:38;;;;;;;127.40;57.40;;;;;;;8.39;100.00;100517.73;215452;1285;139266;-88
2024/02/27 19:07:39;;;;;;;112.70;53.10;;;;;;;8.41;100.00;100527.23;215003;1288;140501;-86
2024/02/27 19:12:39;;;;;;;107.00;50.00;;;;;;;8.37;100.00;100529.48;215379;1285;97997;-87
2024/02/27 19:17:40;;;;;;;100.00;50.20;;;;;;;8.31;100.00;100539.86;214507;1287;140049;-87
2024/02/27 19:22:40;;;;;;;94.10;46.80;;;;;;;8.25;100.00;100533.55;214972;1287;139186;-87
2024/02/27 19:27:41;;;;;;;91.50;47.30;;;;;;;8.27;100.00;100532.17;214475;1286;140378;-87
2024/02/27 19:32:41;;;;;;;92.30;47.10;;;;;;;8.25;100.00;100537.39;214931;1287;139464;-87
2024/02/27 19:37:42;;;;;;;100.90;52.00;;;;;;;8.27;100.00;100537.89;214363;1286;141116;-87
2024/02/27 19:42:42;;;;;;;99.40;52.00;;;;;;;8.28;100.00;100544.42;215092;1287;98015;-87
2024/02/27 19:47:43;;;;;;;118.50;61.50;;;;;;;8.26;100.00;100549.94;214802;1283;140400;-87
2024/02/27 19:52:45;;;;;;;98.80;54.50;;;;;;;8.22;100.00;100551.48;215215;1285;139076;-86
2024/02/27 19:57:45;;;;;;;114.70;60.60;;;;;;;8.22;100.00;100549.30;214437;1285;141760;-87
2024/02/27 20:02:46;;;;;;;104.60;55.30;;;;;;;8.17;100.00;100545.46;214940;1288;140161;-87
2024/02/27 20:07:46;;;;;;;120.20;60.90;;;;;;;8.16;100.00;100549.52;214840;1285;140327;-88
2024/02/27 20:12:47;;;;;;;114.80;60.20;;;;;;;8.17;100.00;100557.21;215108;1286;98057;-87
2024/02/27 20:17:47;;;;;;;107.60;50.90;;;;;;;8.14;100.00;100549.02;214288;1285;140616;-86
2024/02/27 20:22:48;;;;;;;91.00;45.30;;;;;;;8.09;100.00;100552.41;214817;1287;140286;-87
2024/02/27 20:27:49;;;;;;;91.30;46.90;;;;;;;8.08;100.00;100549.89;214161;1287;246894;-86
2024/02/27 20:32:50;;;;;;;80.70;41.40;;;;;;;8.08;100.00;100545.73;214920;1288;139393;-86
2024/02/27 20:37:51;;;;;;;95.40;50.30;;;;;;;8.04;100.00;100538.59;214381;1285;141196;-86
2024/02/27 20:42:52;;;;;;;91.80;49.70;;;;;;;7.96;100.00;100532.45;215133;1285;110568;-86
2024/02/27 20:47:52;;;;;;;82.30;41.20;;;;;;;7.89;100.00;100534.17;214843;1286;141119;-87
2024/02/27 20:52:54;;;;;;;69.50;35.10;;;;;;;7.86;100.00;100543.83;215310;1284;139194;-87
2024/02/27 20:57:56;;;;;;;64.30;33.60;;;;;;;7.89;100.00;100548.83;214346;1284;140544;-87
2024/02/27 21:02:57;;;;;;;71.70;36.00;;;;;;;7.90;100.00;100546.26;215072;1285;139173;-87
2024/02/27 21:07:57;;;;;;;69.60;37.10;;;;;;;7.90;100.00;100547.29;214324;1286;140890;-87
2024/02/27 21:12:58;;;;;;;66.10;33.10;;;;;;;7.89;100.00;100551.88;214952;1286;98097;-88
2024/02/27 21:17:59;;;;;;;83.40;40.70;;;;;;;7.86;100.00;100555.73;214451;1287;140057;-87
2024/02/27 21:22:59;;;;;;;92.40;45.30;;;;;;;7.86;100.00;100564.79;215058;1285;139163;-87
2024/02/27 21:28:02;;;;;;;91.30;41.30;;;;;;;7.86;100.00;100568.23;214614;1285;141209;-88
2024/02/27 21:33:06;;;;;;;78.60;41.40;;;;;;;7.87;100.00;100567.64;215268;1285;141411;-88
2024/02/27 21:38:06;;;;;;;79.90;39.00;;;;;;;7.89;100.00;100574.72;214910;1284;141671;-88
2024/02/27 21:43:07;;;;;;;74.30;38.00;;;;;;;7.89;100.00;100576.93;214996;1287;98071;-87
2024/02/27 21:48:07;;;;;;;70.20;38.70;;;;;;;7.92;100.00;100579.36;214632;1285;140430;-87
2024/02/27 21:53:08;;;;;;;69.80;34.40;;;;;;;7.92;100.00;100583.65;215216;1286;139454;-88
2024/02/27 21:58:09;;;;;;;72.70;33.90;;;;;;;7.91;100.00;100581.67;214612;1289;140629;-88
2024/02/27 22:03:09;;;;;;;72.70;35.30;;;;;;;7.87;100.00;100586.36;215030;1287;139246;-89
2024/02/27 22:08:10;;;;;;;70.30;35.00;;;;;;;7.87;100.00;100581.42;214615;1285;139983;-88
2024/02/27 22:13:10;;;;;;;74.20;35.80;;;;;;;7.88;100.00;100581.13;215384;1289;98894;-87
2024/02/27 22:18:11;;;;;;;68.70;33.70;;;;;;;7.87;100.00;100583.00;214548;1286;140167;-87